createdAt,value
2019-04-27T00:01:05.244Z,139.70
2019-04-27T00:03:41.493Z,164.93
2019-04-27T00:06:13.524Z,146.02
2019-04-27T00:08:48.434Z,185.55
2019-04-27T00:11:22.668Z,143.82
2019-04-27T00:13:53.603Z,147.45
2019-04-27T00:16:46.964Z,184.60
2019-04-27T00:19:31.829Z,154.80
2019-04-27T00:22:08.588Z,140.32
2019-04-27T00:24:37.727Z,155.57
2019-04-27T00:27:06.727Z,164.00
2019-04-27T00:29:35.432Z,169.43
2019-04-27T00:32:04.449Z,133.78
2019-04-27T00:34:33.964Z,115.82
2019-04-27T00:37:13.627Z,107.52
2019-04-27T00:39:48.554Z,164.18
2019-04-27T00:42:17.254Z,186.45
2019-04-27T00:44:46.631Z,184.82
2019-04-27T00:47:15.348Z,162.82
2019-04-27T00:49:44.405Z,195.30
2019-04-27T00:52:13.907Z,208.70
2019-04-27T00:54:44.158Z,199.57
2019-04-27T00:57:34.387Z,135.57
2019-04-27T01:00:21.105Z,114.75
2019-04-27T01:03:04.275Z,192.92
2019-04-27T01:05:33.873Z,137.30
2019-04-27T01:08:03.790Z,136.37
2019-04-27T01:10:33.581Z,141.15
2019-04-27T01:13:03.309Z,159.95
2019-04-27T01:15:33.971Z,141.32
2019-04-27T01:18:11.933Z,187.57
2019-04-27T01:20:34.354Z,156.65
2019-04-27T01:23:03.049Z,158.57
2019-04-27T01:25:45.644Z,128.53
2019-04-27T01:28:29.083Z,141.70
2019-04-27T01:33:30.935Z,146.05
2019-04-27T01:35:59.628Z,160.05
2019-04-27T01:38:29.119Z,170.45
2019-04-27T01:41:00.662Z,142.15
2019-04-27T01:43:30.238Z,165.62
2019-04-27T01:46:01.066Z,188.72
2019-04-27T01:48:30.602Z,180.63
2019-04-27T01:51:00.031Z,106.35
2019-04-27T01:53:30.410Z,118.28
2019-04-27T01:55:59.620Z,159.25
2019-04-27T01:58:29.295Z,156.35
2019-04-27T02:01:18.618Z,149.72
2019-04-27T02:04:10.102Z,223.80
2019-04-27T02:06:39.527Z,201.62
2019-04-27T02:09:12.663Z,168.45
2019-04-27T02:11:41.656Z,448.97
2019-04-27T02:14:10.892Z,258.02
2019-04-27T02:16:39.851Z,266.48
2019-04-27T02:19:09.006Z,206.45
2019-04-27T02:21:39.287Z,126.45
2019-04-27T02:24:09.779Z,121.57
2019-04-27T02:26:39.844Z,111.25
2019-04-27T02:29:18.902Z,115.37
2019-04-27T02:32:05.596Z,100.25
2019-04-27T02:34:41.994Z,131.97
2019-04-27T02:37:11.038Z,135.72
2019-04-27T02:39:40.057Z,115.55
2019-04-27T02:42:10.144Z,158.25
2019-04-27T02:44:40.849Z,313.52
2019-04-27T02:47:10.654Z,505.00
2019-04-27T02:49:40.595Z,629.15
2019-04-27T02:52:29.808Z,367.65
2019-04-27T02:54:59.353Z,698.42
2019-04-27T02:57:30.120Z,185.73
2019-04-27T03:00:00.000Z,777.85
2019-04-27T03:02:35.262Z,155.80
2019-04-27T03:05:04.756Z,616.50
2019-04-27T03:07:33.870Z,452.23
2019-04-27T03:10:02.944Z,250.47
2019-04-27T03:12:41.993Z,364.38
2019-04-27T03:15:22.937Z,314.75
2019-04-27T03:18:02.814Z,140.10
2019-04-27T03:20:40.476Z,151.63
2019-04-27T03:23:10.982Z,127.67
2019-04-27T03:25:51.831Z,138.35
2019-04-27T03:28:20.532Z,134.67
2019-04-27T03:30:52.220Z,132.47
2019-04-27T03:33:22.277Z,141.05
2019-04-27T03:35:52.545Z,130.75
2019-04-27T03:38:20.914Z,114.00
2019-04-27T03:40:52.723Z,116.88
2019-04-27T03:43:25.186Z,111.03
2019-04-27T03:45:55.343Z,105.50
2019-04-27T03:48:24.416Z,112.28
2019-04-27T03:51:11.378Z,94.70
2019-04-27T03:54:00.485Z,121.65
2019-04-27T03:56:39.520Z,134.25
2019-04-27T03:59:13.395Z,113.42
2019-04-27T04:01:42.599Z,115.30
2019-04-27T04:04:11.413Z,89.07
2019-04-27T04:06:40.787Z,77.80
2019-04-27T04:09:10.453Z,76.67
2019-04-27T04:11:46.186Z,86.30
2019-04-27T04:14:20.281Z,61.55
2019-04-27T04:17:02.905Z,59.93
2019-04-27T04:19:47.389Z,78.00
2019-04-27T04:22:02.159Z,171.43
2019-04-27T04:24:31.917Z,124.70
2019-04-27T04:27:01.318Z,114.00
2019-04-27T04:29:30.782Z,85.22
2019-04-27T04:32:00.577Z,114.52
2019-04-27T04:34:30.016Z,331.73
2019-04-27T04:37:00.413Z,490.38
2019-04-27T04:39:29.775Z,179.25
2019-04-27T04:42:10.655Z,329.52
2019-04-27T04:45:00.223Z,421.68
2019-04-27T04:47:45.388Z,150.70
2019-04-27T04:50:15.682Z,126.78
2019-04-27T04:52:44.989Z,141.28
2019-04-27T04:55:15.921Z,294.20
2019-04-27T04:57:44.735Z,169.35
2019-04-27T05:00:14.902Z,251.73
2019-04-27T05:02:44.653Z,265.45
2019-04-27T05:05:13.866Z,380.70
2019-04-27T05:07:43.752Z,134.90
2019-04-27T05:10:13.936Z,108.67
2019-04-27T05:12:45.216Z,109.12
2019-04-27T05:15:15.444Z,126.18
2019-04-27T05:17:45.170Z,96.32
2019-04-27T05:20:30.217Z,101.95
2019-04-27T05:22:59.851Z,103.83
2019-04-27T05:25:30.395Z,103.42
2019-04-27T05:28:00.310Z,89.35
2019-04-27T05:30:39.100Z,102.45
2019-04-27T05:33:09.025Z,104.70
2019-04-27T05:35:41.068Z,108.50
2019-04-27T05:38:13.460Z,103.32
2019-04-27T05:40:42.814Z,117.25
2019-04-27T05:43:20.226Z,90.50
2019-04-27T05:46:39.927Z,74.05
2019-04-27T05:49:18.795Z,95.90
2019-04-27T05:51:50.177Z,56.75
2019-04-27T05:54:20.558Z,72.10
2019-04-27T05:56:49.352Z,60.15
2019-04-27T05:59:19.825Z,51.25
2019-04-27T06:01:49.579Z,48.15
2019-04-27T06:04:19.390Z,44.00
2019-04-27T06:06:49.927Z,44.48
2019-04-27T06:09:19.436Z,44.45
2019-04-27T06:11:50.402Z,39.33
2019-04-27T06:14:19.358Z,36.28
2019-04-27T06:16:51.012Z,34.10
2019-04-27T06:19:19.517Z,33.92
2019-04-27T06:21:50.001Z,25.25
2019-04-27T06:24:19.569Z,24.65
2019-04-27T06:26:49.820Z,18.42
2019-04-27T06:29:19.536Z,20.52
2019-04-27T06:31:49.663Z,22.48
2019-04-27T06:34:19.402Z,19.98
2019-04-27T06:36:50.530Z,20.48
2019-04-27T06:39:20.595Z,18.30
2019-04-27T06:41:49.420Z,16.82
2019-04-27T06:44:19.963Z,15.78
2019-04-27T06:46:49.309Z,19.62
2019-04-27T06:49:19.496Z,15.03
2019-04-27T06:51:49.769Z,14.07
2019-04-27T06:54:21.224Z,13.00
2019-04-27T06:56:51.103Z,13.50
2019-04-27T06:59:21.350Z,12.03
2019-04-27T07:01:51.857Z,11.88
2019-04-27T07:04:21.340Z,12.60
2019-04-27T07:06:56.152Z,13.98
2019-04-27T07:09:26.030Z,13.10
2019-04-27T07:11:56.041Z,13.65
2019-04-27T07:14:25.443Z,11.00
2019-04-27T07:16:55.361Z,13.72
2019-04-27T07:19:25.006Z,11.78
2019-04-27T07:21:54.528Z,15.43
2019-04-27T07:24:23.550Z,15.68
2019-04-27T07:26:53.096Z,11.97
2019-04-27T07:29:24.325Z,11.80
2019-04-27T07:31:55.086Z,12.20
2019-04-27T07:34:24.387Z,11.15
2019-04-27T07:36:54.577Z,12.45
2019-04-27T07:39:23.238Z,10.28
2019-04-27T07:41:52.028Z,10.55
2019-04-27T07:44:46.654Z,10.32
2019-04-27T07:47:22.358Z,9.53
2019-04-27T07:49:51.848Z,10.00
2019-04-27T07:52:20.777Z,8.70
2019-04-27T07:54:50.010Z,8.30
2019-04-27T07:57:21.406Z,7.50
2019-04-27T07:59:50.396Z,9.58
2019-04-27T08:02:19.255Z,7.67
2019-04-27T08:04:50.284Z,10.25
2019-04-27T08:07:19.819Z,8.25
2019-04-27T08:09:49.603Z,8.75
2019-04-27T08:12:20.938Z,8.25
2019-04-27T08:14:52.092Z,9.30
2019-04-27T08:17:20.777Z,8.60
2019-04-27T08:19:49.810Z,10.25
2019-04-27T08:22:19.351Z,9.78
2019-04-27T08:24:49.648Z,6.95
2019-04-27T08:27:24.836Z,7.87
2019-04-27T08:30:04.244Z,8.53
2019-04-27T08:32:37.005Z,7.17
2019-04-27T08:35:06.940Z,7.05
2019-04-27T08:37:35.629Z,7.95
2019-04-27T08:40:05.319Z,8.83
2019-04-27T08:42:33.995Z,7.45
2019-04-27T08:45:02.680Z,7.40
2019-04-27T08:47:31.330Z,7.47
2019-04-27T08:50:00.018Z,7.05
2019-04-27T08:52:29.073Z,7.80
2019-04-27T08:54:59.447Z,6.75
2019-04-27T08:57:28.996Z,7.08
2019-04-27T08:59:59.652Z,6.22
2019-04-27T09:02:39.789Z,6.80
2019-04-27T09:04:59.663Z,6.85
2019-04-27T09:07:36.890Z,7.72
2019-04-27T09:10:22.554Z,6.60
2019-04-27T09:13:03.952Z,9.15
2019-04-27T09:15:40.693Z,6.83
2019-04-27T09:18:09.956Z,5.92
2019-04-27T09:20:45.058Z,6.53
2019-04-27T09:23:13.805Z,6.30
2019-04-27T09:25:42.554Z,5.30
2019-04-27T09:28:11.246Z,5.78
2019-04-27T09:30:39.989Z,5.20
2019-04-27T09:33:08.800Z,5.60
2019-04-27T09:35:37.566Z,6.75
2019-04-27T09:38:07.110Z,6.17
2019-04-27T09:40:36.141Z,5.37
2019-04-27T09:43:04.969Z,5.92
2019-04-27T09:45:33.640Z,4.87
2019-04-27T09:48:02.299Z,5.78
2019-04-27T09:50:31.178Z,4.40
2019-04-27T09:52:59.854Z,8.10
2019-04-27T09:55:28.501Z,6.08
2019-04-27T09:57:57.199Z,6.47
2019-04-27T10:00:27.809Z,6.08
2019-04-27T10:02:56.680Z,6.10
2019-04-27T10:05:26.361Z,5.05
2019-04-27T10:07:56.894Z,6.42
2019-04-27T10:10:26.781Z,6.37
2019-04-27T10:12:56.801Z,7.50
2019-04-27T10:15:26.712Z,6.78
2019-04-27T10:17:57.633Z,8.70
2019-04-27T10:20:26.287Z,8.03
2019-04-27T10:22:56.473Z,6.75
2019-04-27T10:25:27.094Z,5.40
2019-04-27T10:27:58.902Z,6.25
2019-04-27T10:30:28.706Z,6.03
2019-04-27T10:32:57.717Z,5.62
2019-04-27T10:35:26.448Z,6.53
2019-04-27T10:37:55.498Z,6.58
2019-04-27T10:40:26.235Z,7.78
2019-04-27T10:42:56.089Z,8.25
2019-04-27T10:45:25.269Z,8.00
2019-04-27T10:47:54.027Z,10.85
2019-04-27T10:50:26.577Z,8.38
2019-04-27T10:52:59.103Z,9.53
2019-04-27T10:55:28.091Z,19.02
2019-04-27T10:57:56.765Z,7.15
2019-04-27T11:00:32.902Z,7.33
2019-04-27T11:03:01.827Z,8.15
2019-04-27T11:05:43.182Z,7.83
2019-04-27T11:08:12.522Z,7.10
2019-04-27T11:10:41.267Z,7.47
2019-04-27T11:13:11.211Z,7.35
2019-04-27T11:15:40.738Z,8.73
2019-04-27T11:18:09.494Z,7.45
2019-04-27T11:20:38.729Z,7.45
2019-04-27T11:23:12.108Z,7.15
2019-04-27T11:25:39.200Z,9.45
2019-04-27T11:28:08.196Z,8.03
2019-04-27T11:30:37.371Z,6.35
2019-04-27T11:33:06.356Z,6.85
2019-04-27T11:35:46.936Z,6.55
2019-04-27T11:38:16.750Z,7.47
2019-04-27T11:40:46.661Z,6.22
2019-04-27T11:43:16.197Z,6.17
2019-04-27T11:45:45.766Z,5.67
2019-04-27T11:48:16.152Z,8.48
2019-04-27T11:50:45.986Z,8.20
2019-04-27T11:53:22.592Z,7.00
2019-04-27T11:55:46.484Z,8.48
2019-04-27T11:58:16.491Z,7.80
2019-04-27T12:00:45.313Z,8.58
2019-04-27T12:03:14.295Z,8.60
2019-04-27T12:05:43.241Z,8.75
2019-04-27T12:08:11.936Z,8.38
2019-04-27T12:10:40.620Z,10.13
2019-04-27T12:13:09.303Z,9.23
2019-04-27T12:15:38.267Z,9.08
2019-04-27T12:18:09.011Z,10.03
2019-04-27T12:20:37.452Z,9.75
2019-04-27T12:23:06.503Z,8.65
2019-04-27T12:25:37.318Z,9.60
2019-04-27T12:28:29.987Z,8.33
2019-04-27T12:31:08.806Z,7.97
2019-04-27T12:33:37.371Z,6.35
2019-04-27T12:36:07.030Z,7.03
2019-04-27T12:38:36.573Z,8.58
2019-04-27T12:41:06.748Z,6.97
2019-04-27T12:43:37.416Z,9.10
2019-04-27T12:46:06.425Z,4.65
2019-04-27T12:48:37.209Z,5.20
2019-04-27T12:51:06.268Z,3.98
2019-04-27T12:53:50.734Z,5.17
2019-04-27T12:56:19.055Z,4.90
2019-04-27T12:59:06.850Z,4.03
2019-04-27T13:01:36.106Z,4.50
2019-04-27T13:04:05.170Z,4.08
2019-04-27T13:06:35.717Z,4.30
2019-04-27T13:09:07.184Z,4.30
2019-04-27T13:11:36.617Z,5.03
2019-04-27T13:14:06.199Z,6.90
2019-04-27T13:16:34.983Z,5.78
2019-04-27T13:19:06.044Z,5.75
2019-04-27T13:21:36.554Z,4.90
2019-04-27T13:24:07.006Z,6.00
2019-04-27T13:26:36.223Z,7.22
2019-04-27T13:29:06.847Z,7.60
2019-04-27T13:31:36.925Z,6.70
2019-04-27T13:34:05.838Z,8.13
2019-04-27T13:36:34.513Z,7.42
2019-04-27T13:39:03.840Z,7.55
2019-04-27T13:41:32.959Z,9.58
2019-04-27T13:44:01.643Z,5.37
2019-04-27T13:46:49.438Z,5.05
2019-04-27T13:49:39.916Z,3.50
2019-04-27T13:52:16.105Z,3.42
2019-04-27T13:54:45.902Z,2.55
2019-04-27T13:57:16.438Z,2.67
2019-04-27T13:59:45.067Z,2.08
2019-04-27T14:02:15.677Z,2.42
2019-04-27T14:04:44.464Z,5.60
2019-04-27T14:07:13.180Z,2.52
2019-04-27T14:09:41.844Z,2.83
2019-04-27T14:12:28.574Z,2.80
2019-04-27T14:14:59.087Z,2.45
2019-04-27T14:18:04.037Z,2.55
2019-04-27T14:20:45.282Z,3.98
2019-04-27T14:23:26.222Z,2.67
2019-04-27T14:25:55.913Z,5.62
2019-04-27T14:28:26.270Z,8.35
2019-04-27T14:31:00.222Z,6.42
2019-04-27T14:33:31.776Z,8.20
2019-04-27T14:36:02.552Z,9.65
2019-04-27T14:38:31.550Z,7.85
2019-04-27T14:41:02.121Z,4.47
2019-04-27T14:43:32.316Z,5.62
2019-04-27T14:46:03.025Z,5.97
2019-04-27T14:48:32.172Z,5.30
2019-04-27T14:51:03.301Z,8.80
2019-04-27T14:53:32.587Z,6.70
2019-04-27T14:56:02.106Z,10.58
2019-04-27T14:58:32.932Z,7.92
2019-04-27T15:01:02.555Z,6.75
2019-04-27T15:03:31.880Z,8.93
2019-04-27T15:06:00.920Z,8.13
2019-04-27T15:08:30.560Z,5.97
2019-04-27T15:11:01.868Z,10.15
2019-04-27T15:13:56.833Z,10.13
2019-04-27T15:16:26.398Z,11.70
2019-04-27T15:18:59.955Z,12.60
2019-04-27T15:21:32.644Z,6.50
2019-04-27T15:24:09.395Z,10.95
2019-04-27T15:26:33.748Z,12.13
2019-04-27T15:29:04.637Z,6.85
2019-04-27T15:31:38.803Z,6.47
2019-04-27T15:34:16.259Z,10.18
2019-04-27T15:37:03.002Z,12.28
2019-04-27T15:39:58.316Z,7.72
2019-04-27T15:42:34.813Z,11.53
2019-04-27T15:45:06.001Z,12.18
2019-04-27T15:47:35.167Z,12.60
2019-04-27T15:50:04.724Z,7.95
2019-04-27T15:52:33.372Z,11.53
2019-04-27T15:55:02.838Z,7.30
2019-04-27T15:57:33.376Z,10.05
2019-04-27T16:00:02.077Z,11.53
2019-04-27T16:02:31.451Z,15.85
2019-04-27T16:05:00.819Z,12.88
2019-04-27T16:07:32.033Z,11.10
2019-04-27T16:10:02.765Z,9.28
2019-04-27T16:12:34.541Z,10.93
2019-04-27T16:15:05.072Z,12.78
2019-04-27T16:17:33.053Z,9.93
2019-04-27T16:20:01.863Z,9.68
2019-04-27T16:22:30.960Z,9.65
2019-04-27T16:24:59.665Z,10.10
2019-04-27T16:27:31.431Z,9.23
2019-04-27T16:30:04.703Z,7.28
2019-04-27T16:32:29.274Z,14.28
2019-04-27T16:34:59.266Z,9.13
2019-04-27T16:37:38.804Z,11.73
2019-04-27T16:40:08.394Z,11.75
2019-04-27T16:42:38.363Z,10.93
2019-04-27T16:45:08.681Z,12.85
2019-04-27T16:47:38.377Z,11.00
2019-04-27T16:50:08.318Z,11.08
2019-04-27T16:52:38.923Z,10.48
2019-04-27T16:55:08.683Z,12.35
2019-04-27T16:57:40.026Z,13.03
2019-04-27T17:00:11.682Z,13.38
2019-04-27T17:02:40.423Z,16.32
2019-04-27T17:05:09.376Z,11.33
2019-04-27T17:07:41.728Z,15.83
2019-04-27T17:10:09.507Z,13.58
2019-04-27T17:12:43.256Z,17.37
2019-04-27T17:15:53.713Z,12.47
2019-04-27T17:18:24.293Z,16.77
2019-04-27T17:20:59.411Z,7.40
2019-04-27T17:23:31.681Z,9.30
2019-04-27T17:26:09.375Z,13.13
2019-04-27T17:28:40.172Z,10.70
2019-04-27T17:31:12.910Z,9.45
2019-04-27T17:33:48.686Z,10.20
2019-04-27T17:36:16.532Z,14.15
2019-04-27T17:38:47.348Z,18.67
2019-04-27T17:41:15.901Z,12.98
2019-04-27T17:43:48.165Z,12.23
2019-04-27T17:46:25.228Z,11.47
2019-04-27T17:49:08.448Z,14.47
2019-04-27T17:51:45.453Z,14.63
2019-04-27T17:54:15.184Z,11.12
2019-04-27T17:56:52.318Z,17.95
2019-04-27T17:59:37.503Z,14.50
2019-04-27T18:02:20.446Z,11.30
2019-04-27T18:04:53.160Z,21.52
2019-04-27T18:08:08.346Z,14.40
2019-04-27T18:10:53.640Z,18.02
2019-04-27T18:13:25.583Z,14.40
2019-04-27T18:15:58.985Z,14.83
2019-04-27T18:18:48.678Z,10.78
2019-04-27T18:21:21.990Z,21.07
2019-04-27T18:27:04.437Z,19.48
2019-04-27T18:29:59.294Z,15.48
2019-04-27T18:32:40.379Z,12.45
2019-04-27T18:35:14.057Z,11.70
2019-04-27T18:37:53.657Z,14.03
2019-04-27T18:40:32.548Z,11.97
2019-04-27T18:43:09.619Z,16.05
2019-04-27T18:45:44.891Z,16.40
2019-04-27T18:48:37.744Z,14.35
2019-04-27T18:51:48.328Z,13.90
2019-04-27T18:54:41.853Z,14.05
2019-04-27T18:57:38.682Z,7.53
2019-04-27T19:00:17.748Z,11.15
2019-04-27T19:02:58.364Z,10.45
2019-04-27T19:05:52.151Z,11.88
2019-04-27T19:08:49.375Z,13.60
2019-04-27T19:11:24.155Z,12.63
2019-04-27T19:14:28.225Z,11.15
2019-04-27T19:17:03.726Z,16.60
2019-04-27T19:22:38.594Z,19.45
2019-04-27T19:25:15.113Z,21.55
2019-04-27T19:31:21.634Z,17.73
2019-04-27T19:34:13.054Z,23.85
2019-04-27T19:36:46.048Z,21.00
2019-04-27T19:39:21.970Z,14.53
2019-04-27T19:42:06.430Z,16.90
2019-04-27T19:44:44.044Z,16.27
2019-04-27T19:47:16.636Z,18.00
2019-04-27T19:49:52.271Z,18.87
2019-04-27T19:52:30.386Z,20.55
2019-04-27T19:55:09.283Z,28.15
2019-04-27T19:57:44.371Z,68.95
2019-04-27T20:00:35.845Z,23.10
2019-04-27T20:03:20.104Z,22.50
2019-04-27T20:06:30.472Z,25.15
2019-04-27T20:09:11.897Z,24.63
2019-04-27T20:11:50.431Z,20.50
2019-04-27T20:14:25.549Z,25.97
2019-04-27T20:17:02.297Z,28.95
2019-04-27T20:19:37.245Z,23.92
2019-04-27T20:22:12.943Z,25.27
2019-04-27T20:24:46.116Z,22.90
2019-04-27T20:27:21.052Z,21.87
2019-04-27T20:30:03.035Z,18.20
2019-04-27T20:32:37.757Z,23.70
2019-04-27T20:35:11.867Z,19.05
2019-04-27T20:37:45.641Z,21.37
2019-04-27T20:40:21.775Z,25.15
2019-04-27T20:42:57.573Z,21.12
2019-04-27T20:46:02.603Z,21.25
2019-04-27T20:48:34.072Z,18.77
2019-04-27T20:51:12.583Z,18.12
2019-04-27T20:53:49.055Z,19.57
2019-04-27T20:56:32.478Z,19.32
2019-04-27T20:59:15.512Z,21.15
2019-04-27T21:01:52.161Z,26.87
2019-04-27T21:04:32.389Z,19.70
2019-04-27T21:07:08.041Z,19.85
2019-04-27T21:09:46.873Z,23.55
2019-04-27T21:12:27.978Z,20.25
2019-04-27T21:15:21.481Z,16.87
2019-04-27T21:17:57.283Z,19.17
2019-04-27T21:21:03.468Z,23.20
2019-04-27T21:23:44.946Z,17.32
2019-04-27T21:26:13.703Z,16.75
2019-04-27T21:28:43.304Z,20.05
2019-04-27T21:31:12.927Z,21.65
2019-04-27T21:33:42.299Z,17.20
2019-04-27T21:36:11.831Z,16.42
2019-04-27T21:38:42.887Z,19.73
2019-04-27T21:41:11.598Z,20.60
2019-04-27T21:43:42.104Z,17.67
2019-04-27T21:46:10.708Z,20.88
2019-04-27T21:48:41.422Z,16.27
2019-04-27T21:51:11.714Z,13.93
2019-04-27T21:53:58.052Z,20.65
2019-04-27T21:56:27.448Z,11.95
2019-04-27T21:58:56.129Z,16.37
2019-04-27T22:01:28.896Z,17.07
2019-04-27T22:03:57.607Z,17.57
2019-04-27T22:06:26.672Z,12.58
2019-04-27T22:08:55.828Z,10.10
2019-04-27T22:11:24.670Z,10.68
2019-04-27T22:13:53.401Z,17.45
2019-04-27T22:16:22.755Z,15.58
2019-04-27T22:18:52.566Z,13.43
2019-04-27T22:21:22.282Z,18.07
2019-04-27T22:24:00.985Z,9.83
2019-04-27T22:26:31.473Z,12.98
2019-04-27T22:29:01.590Z,16.90
2019-04-27T22:31:31.406Z,16.12
2019-04-27T22:34:01.754Z,21.97
2019-04-27T22:36:30.751Z,26.33
2019-04-27T22:39:03.895Z,25.12
2019-04-27T22:41:41.714Z,25.05
2019-04-27T22:44:29.193Z,29.50
2019-04-27T22:46:59.096Z,23.98
2019-04-27T22:49:28.827Z,21.35
2019-04-27T22:51:57.794Z,22.93
2019-04-27T22:54:26.853Z,23.65
2019-04-27T22:56:58.177Z,26.60
2019-04-27T22:59:36.590Z,24.72
2019-04-27T23:02:13.681Z,18.42
2019-04-27T23:04:46.435Z,23.35
2019-04-27T23:07:15.187Z,21.02
2019-04-27T23:09:44.512Z,20.27
2019-04-27T23:12:14.100Z,20.48
2019-04-27T23:14:42.854Z,25.00
2019-04-27T23:17:38.161Z,24.15
2019-04-27T23:20:07.210Z,26.05
2019-04-27T23:22:36.263Z,21.52
2019-04-27T23:25:07.697Z,20.50
2019-04-27T23:27:36.645Z,31.90
2019-04-27T23:30:06.024Z,23.45
2019-04-27T23:32:41.357Z,23.30
2019-04-27T23:35:10.581Z,21.82
2019-04-27T23:37:39.296Z,21.90
2019-04-27T23:40:08.439Z,25.17
2019-04-27T23:42:37.178Z,23.27
2019-04-27T23:45:06.822Z,20.00
2019-04-27T23:47:35.593Z,23.15
2019-04-27T23:50:04.908Z,21.52
2019-04-27T23:52:52.614Z,19.12
2019-04-27T23:55:22.934Z,21.45
2019-04-27T23:57:51.675Z,20.80
